Time;durP1;ratioP1;P1;durP2;ratioP2;P2;SDS_P1;SDS_P2;PMS_P1;PMS_P2;Temp;Humidity;BMP_temperature;BMP_pressure;BME280_temperature;BME280_humidity;BME280_pressure;Samples;Min_cycle;Max_cycle;Signal;HPM_P1;HPM_P2
2022/05/12 00:02:21;;;;;;;27.88;17.77;;;24.40;57.50;;;;;;4979559;28;20022;-80
2022/05/12 00:04:47;;;;;;;27.48;16.67;;;24.40;57.20;;;;;;4977163;28;20034;-80
2022/05/12 00:07:13;;;;;;;39.10;18.48;;;24.30;57.20;;;;;;4977301;28;20034;-80
2022/05/12 00:09:39;;;;;;;28.08;17.48;;;24.40;57.40;;;;;;5000729;28;20449;-79
2022/05/12 00:12:05;;;;;;;26.42;16.88;;;24.30;57.30;;;;;;5001615;28;20030;-74
2022/05/12 00:14:31;;;;;;;31.23;17.95;;;24.40;57.50;;;;;;4994931;28;20051;-75
2022/05/12 00:16:57;;;;;;;26.73;16.48;;;24.40;57.00;;;;;;5028216;28;20030;-74
2022/05/12 00:19:26;;;;;;;26.15;16.52;;;24.40;57.20;;;;;;5024446;28;20032;-75
2022/05/12 00:21:53;;;;;;;30.98;16.95;;;24.30;57.20;;;;;;5016775;28;20025;-74
2022/05/12 00:24:19;;;;;;;24.08;15.48;;;24.40;57.50;;;;;;5026566;28;20021;-75
2022/05/12 00:26:45;;;;;;;23.15;16.40;;;24.40;57.00;;;;;;5030803;28;20087;-75
2022/05/12 00:29:11;;;;;;;24.10;16.90;;;24.30;56.80;;;;;;5031360;28;20040;-75
2022/05/12 00:31:41;;;;;;;23.77;15.93;;;24.30;56.80;;;;;;5032159;28;20053;-75
2022/05/12 00:34:08;;;;;;;20.92;14.90;;;24.30;57.00;;;;;;5030801;28;20025;-75
2022/05/12 00:36:35;;;;;;;23.00;14.93;;;24.30;56.90;;;;;;5031103;28;20025;-75
2022/05/12 00:39:02;;;;;;;23.75;15.00;;;24.30;56.90;;;;;;5016466;28;20691;-75
2022/05/12 00:41:28;;;;;;;24.27;15.18;;;24.30;56.90;;;;;;5025618;28;20033;-74
2022/05/12 00:44:02;;;;;;;20.05;14.13;;;24.30;56.80;;;;;;5022468;28;20513;-75
2022/05/12 00:46:33;;;;;;;22.88;14.48;;;24.30;57.00;;;;;;5032209;28;20052;-73
2022/05/12 00:49:24;;;;;;;30.60;14.65;;;24.30;56.80;;;;;;5031936;28;20406;-73
2022/05/12 00:51:56;;;;;;;24.98;13.38;;;24.30;56.90;;;;;;5011564;28;20049;-74
2022/05/12 00:54:30;;;;;;;19.85;12.88;;;24.30;56.90;;;;;;5015477;28;20034;-74
2022/05/12 00:56:58;;;;;;;25.70;12.98;;;24.30;56.70;;;;;;5019591;28;20104;-75
2022/05/12 00:59:30;;;;;;;19.55;12.23;;;24.30;56.70;;;;;;5022571;28;20029;-75
2022/05/12 01:01:57;;;;;;;24.27;12.75;;;24.30;56.60;;;;;;4994716;28;20109;-74
2022/05/12 01:04:24;;;;;;;21.02;11.38;;;24.30;56.80;;;;;;5010176;28;20061;-74
2022/05/12 01:06:51;;;;;;;18.65;11.70;;;24.30;56.50;;;;;;5011232;28;22008;-74
2022/05/12 01:09:19;;;;;;;18.75;11.52;;;24.30;56.50;;;;;;5017336;28;20040;-74
2022/05/12 01:11:50;;;;;;;17.70;10.90;;;24.30;56.50;;;;;;5019158;28;20025;-74
2022/05/12 01:14:16;;;;;;;17.33;10.52;;;24.20;56.30;;;;;;5012597;28;20030;-74
2022/05/12 01:16:48;;;;;;;16.48;10.38;;;24.30;56.30;;;;;;5010136;28;20025;-74
2022/05/12 01:19:20;;;;;;;17.80;9.65;;;24.20;56.30;;;;;;4993664;28;20032;-75
2022/05/12 01:21:47;;;;;;;17.52;10.35;;;24.30;56.60;;;;;;5010330;28;20375;-74
2022/05/12 01:24:14;;;;;;;15.25;9.68;;;24.30;56.20;;;;;;5010677;28;20022;-74
2022/05/12 01:26:40;;;;;;;19.90;9.52;;;24.30;56.40;;;;;;5023824;28;20031;-74
2022/05/12 01:29:06;;;;;;;14.55;8.85;;;24.30;56.10;;;;;;5016821;28;20033;-74
2022/05/12 01:31:34;;;;;;;17.70;9.68;;;24.30;56.10;;;;;;5010145;28;20030;-75
2022/05/12 01:34:00;;;;;;;13.52;8.98;;;24.30;56.00;;;;;;4992981;28;20085;-74
2022/05/12 01:36:25;;;;;;;14.73;8.82;;;24.30;55.90;;;;;;4993179;28;20423;-75
2022/05/12 01:38:52;;;;;;;17.23;8.57;;;24.20;55.90;;;;;;4990532;28;20018;-74
2022/05/12 01:41:18;;;;;;;11.73;8.00;;;24.20;55.80;;;;;;5016787;28;20022;-74
2022/05/12 01:43:44;;;;;;;16.65;8.25;;;24.30;56.00;;;;;;5016977;28;20033;-74
2022/05/12 01:46:10;;;;;;;14.70;7.70;;;24.20;55.90;;;;;;5016025;28;20029;-74
2022/05/12 01:48:36;;;;;;;11.82;6.60;;;24.20;56.00;;;;;;4999704;28;20454;-74
2022/05/12 01:51:03;;;;;;;13.25;8.15;;;24.30;56.10;;;;;;5009209;28;20025;-74
2022/05/12 01:53:30;;;;;;;12.35;7.00;;;24.20;56.10;;;;;;5016706;28;20034;-74
2022/05/12 01:55:57;;;;;;;12.82;7.43;;;24.20;56.20;;;;;;5006053;28;20065;-73
2022/05/12 01:58:23;;;;;;;10.35;6.40;;;24.20;56.10;;;;;;4997979;28;20018;-74
2022/05/12 02:00:49;;;;;;;11.13;6.95;;;24.20;56.10;;;;;;5013361;28;20382;-74
2022/05/12 02:03:15;;;;;;;10.65;6.28;;;24.20;56.10;;;;;;5015070;28;20021;-74
2022/05/12 02:05:41;;;;;;;11.32;6.70;;;24.20;56.30;;;;;;5011291;28;20033;-74
2022/05/12 02:08:09;;;;;;;11.30;6.43;;;24.20;56.20;;;;;;4992579;28;20423;-74
2022/05/12 02:10:38;;;;;;;11.60;6.00;;;24.30;56.20;;;;;;5013462;28;20155;-74
2022/05/12 02:13:09;;;;;;;12.67;6.53;;;24.20;56.10;;;;;;5016374;28;20389;-74
2022/05/12 02:15:37;;;;;;;11.60;6.40;;;24.20;56.00;;;;;;5009256;28;20026;-73
2022/05/12 02:18:04;;;;;;;10.88;5.93;;;24.20;56.00;;;;;;5017209;28;20022;-73
2022/05/12 02:20:29;;;;;;;10.02;5.78;;;24.30;55.90;;;;;;4992504;28;20053;-74
2022/05/12 02:22:55;;;;;;;10.85;5.88;;;24.20;56.10;;;;;;5009954;28;20108;-73
2022/05/12 02:25:21;;;;;;;13.50;5.22;;;24.20;56.00;;;;;;5009599;28;20026;-74
2022/05/12 02:27:47;;;;;;;11.52;6.15;;;24.30;55.90;;;;;;5019059;28;20029;-73
2022/05/12 02:30:20;;;;;;;11.10;5.80;;;24.20;55.80;;;;;;5008295;28;20084;-74
2022/05/12 02:32:46;;;;;;;10.40;5.78;;;24.30;55.90;;;;;;5010153;28;20022;-73
2022/05/12 02:35:12;;;;;;;9.13;5.03;;;24.20;55.90;;;;;;5009312;28;20026;-74
2022/05/12 02:37:39;;;;;;;10.93;5.22;;;24.20;56.00;;;;;;5015785;28;20117;-73
2022/05/12 02:40:06;;;;;;;9.10;4.97;;;24.30;56.00;;;;;;5015051;28;20029;-74
2022/05/12 02:42:32;;;;;;;9.23;5.30;;;24.20;56.00;;;;;;5018513;28;20552;-74
2022/05/12 02:44:57;;;;;;;8.30;4.72;;;24.20;55.80;;;;;;5023474;28;20029;-74
2022/05/12 02:47:23;;;;;;;7.78;4.50;;;24.20;56.00;;;;;;5025579;28;20464;-74
2022/05/12 02:49:48;;;;;;;8.88;4.63;;;24.20;56.00;;;;;;4991441;28;20100;-74
2022/05/12 02:52:14;;;;;;;10.48;4.80;;;24.20;55.90;;;;;;4996930;28;20026;-74
2022/05/12 02:54:40;;;;;;;6.70;4.05;;;24.20;56.10;;;;;;5014258;28;20037;-74
2022/05/12 02:57:06;;;;;;;10.45;4.57;;;24.20;56.00;;;;;;5005474;28;20071;-74
2022/05/12 02:59:31;;;;;;;9.77;4.68;;;24.20;55.90;;;;;;5024190;28;20032;-73
2022/05/12 03:01:58;;;;;;;8.52;4.38;;;24.20;55.90;;;;;;5010429;28;20022;-73
2022/05/12 03:04:25;;;;;;;7.60;4.13;;;24.20;56.00;;;;;;5012673;28;20437;-73
2022/05/12 03:06:51;;;;;;;9.50;4.07;;;24.20;56.10;;;;;;5009771;28;20038;-73
2022/05/12 03:09:17;;;;;;;7.15;4.03;;;24.20;56.00;;;;;;5002441;28;20021;-73
2022/05/12 03:11:42;;;;;;;6.80;3.83;;;24.20;55.90;;;;;;5018582;28;20410;-73
2022/05/12 03:14:09;;;;;;;8.43;3.90;;;24.20;55.90;;;;;;4995559;28;20018;-73
2022/05/12 03:16:34;;;;;;;10.00;4.00;;;24.20;55.90;;;;;;5013323;28;20096;-74
2022/05/12 03:19:00;;;;;;;7.07;3.92;;;24.20;55.90;;;;;;4995046;28;20025;-73
2022/05/12 03:21:26;;;;;;;7.78;3.40;;;24.20;55.80;;;;;;5013165;28;20062;-73
2022/05/12 03:23:52;;;;;;;7.78;3.90;;;24.20;55.80;;;;;;5004902;28;20021;-73
2022/05/12 03:26:18;;;;;;;6.70;3.70;;;24.20;55.80;;;;;;5017125;28;20026;-73
2022/05/12 03:28:44;;;;;;;10.18;3.78;;;24.20;55.80;;;;;;5012799;28;20510;-73
2022/05/12 03:31:10;;;;;;;7.82;3.55;;;24.20;55.80;;;;;;4995506;28;20080;-73
2022/05/12 03:33:36;;;;;;;8.02;3.72;;;24.20;55.80;;;;;;5002776;28;20034;-73
2022/05/12 03:36:03;;;;;;;7.07;3.50;;;24.20;55.80;;;;;;5013005;28;20040;-73
2022/05/12 03:38:29;;;;;;;7.57;3.20;;;24.20;55.90;;;;;;5020451;28;20032;-73
2022/05/12 03:40:55;;;;;;;7.47;3.20;;;24.20;55.80;;;;;;5010443;28;20030;-73
2022/05/12 03:46:07;;;;;;;12.07;3.53;;;24.20;55.80;;;;;;5022924;28;20021;-74
2022/05/12 03:48:35;;;;;;;7.15;3.38;;;24.20;55.80;;;;;;5026616;28;20630;-74
2022/05/12 03:51:02;;;;;;;8.52;3.20;;;24.20;55.90;;;;;;5019496;28;20070;-74
2022/05/12 03:53:28;;;;;;;6.50;2.80;;;24.20;55.80;;;;;;5017390;28;20030;-74
2022/05/12 03:55:54;;;;;;;6.18;3.13;;;24.20;55.90;;;;;;5012075;28;20014;-74
2022/05/12 03:58:20;;;;;;;8.52;3.40;;;24.20;55.80;;;;;;5012296;28;20100;-73
2022/05/12 04:00:48;;;;;;;6.97;3.00;;;24.20;55.80;;;;;;5020990;28;20018;-74
2022/05/12 04:03:14;;;;;;;7.43;3.17;;;24.20;55.80;;;;;;4994269;28;20076;-74
2022/05/12 04:05:40;;;;;;;7.10;3.13;;;24.20;55.70;;;;;;5028549;28;20021;-73
2022/05/12 04:08:05;;;;;;;5.28;2.70;;;24.20;55.70;;;;;;5020526;28;20022;-74
2022/05/12 04:10:32;;;;;;;4.90;2.70;;;24.10;55.70;;;;;;4994693;28;20033;-74
2022/05/12 04:12:58;;;;;;;8.27;3.25;;;24.20;55.70;;;;;;5016632;28;20026;-74
2022/05/12 04:15:24;;;;;;;6.45;2.80;;;24.10;55.60;;;;;;5023581;28;20095;-74
2022/05/12 04:17:58;;;;;;;6.10;2.85;;;24.20;55.60;;;;;;5018799;28;20025;-74
2022/05/12 04:20:25;;;;;;;7.25;2.78;;;24.20;55.60;;;;;;5010760;28;20022;-73
2022/05/12 04:22:51;;;;;;;5.03;2.60;;;24.20;55.50;;;;;;4994245;28;20053;-74
2022/05/12 04:25:17;;;;;;;6.00;3.00;;;24.20;55.50;;;;;;5019491;28;20064;-74
2022/05/12 04:27:43;;;;;;;6.00;2.42;;;24.20;55.50;;;;;;5011328;28;20038;-74
2022/05/12 04:30:12;;;;;;;7.35;2.47;;;24.10;55.50;;;;;;5011821;28;20036;-74
2022/05/12 04:32:38;;;;;;;6.83;2.90;;;24.10;55.40;;;;;;4998101;28;20396;-73
2022/05/12 04:35:12;;;;;;;6.47;2.85;;;24.10;55.30;;;;;;5026609;28;20029;-73
2022/05/12 04:37:46;;;;;;;7.55;2.80;;;24.20;55.30;;;;;;5010766;28;20026;-73
2022/05/12 04:40:16;;;;;;;10.80;3.47;;;24.20;55.30;;;;;;5012098;28;20644;-73
2022/05/12 04:42:43;;;;;;;8.25;2.70;;;24.10;55.30;;;;;;5010811;28;20473;-74
2022/05/12 04:45:11;;;;;;;6.82;2.80;;;24.20;55.30;;;;;;5011329;28;20025;-73
2022/05/12 04:47:38;;;;;;;8.15;2.50;;;24.10;55.30;;;;;;5020459;28;20034;-73
2022/05/12 04:50:06;;;;;;;8.85;2.67;;;24.10;55.30;;;;;;5016080;28;20482;-74
2022/05/12 04:52:32;;;;;;;5.97;2.40;;;24.10;55.30;;;;;;5017933;28;20215;-74
2022/05/12 04:54:57;;;;;;;7.82;2.92;;;24.10;55.20;;;;;;5011025;28;20126;-73
2022/05/12 04:57:23;;;;;;;5.85;2.78;;;24.10;55.10;;;;;;5011607;28;20030;-74
2022/05/12 04:59:51;;;;;;;5.53;2.63;;;24.10;55.10;;;;;;4991918;28;20054;-73
2022/05/12 05:02:18;;;;;;;6.50;2.78;;;24.10;55.10;;;;;;5018396;28;20054;-74
2022/05/12 05:04:44;;;;;;;6.82;2.70;;;24.10;55.10;;;;;;5010875;28;20037;-74
2022/05/12 05:07:11;;;;;;;6.40;2.80;;;24.10;54.90;;;;;;5018373;28;20100;-74
2022/05/12 05:09:37;;;;;;;6.45;2.63;;;24.10;54.80;;;;;;5010571;28;20034;-74
2022/05/12 05:12:04;;;;;;;5.55;2.45;;;24.10;54.80;;;;;;4992969;28;20376;-73
2022/05/12 05:14:29;;;;;;;5.63;2.70;;;24.10;54.70;;;;;;5015983;28;20117;-73
2022/05/12 05:16:55;;;;;;;6.10;2.33;;;24.20;54.70;;;;;;5011673;28;20097;-73
2022/05/12 05:19:21;;;;;;;4.85;2.50;;;24.10;54.60;;;;;;5011095;28;20040;-73
2022/05/12 05:21:47;;;;;;;6.20;2.55;;;24.10;54.50;;;;;;5010975;28;20101;-73
2022/05/12 05:24:13;;;;;;;7.50;2.70;;;24.10;54.50;;;;;;5011312;28;20022;-73
2022/05/12 05:26:38;;;;;;;7.10;2.53;;;24.10;54.50;;;;;;4997790;28;20511;-72
2022/05/12 05:29:04;;;;;;;5.25;2.45;;;24.10;54.40;;;;;;5020201;28;20073;-72
2022/05/12 05:31:30;;;;;;;7.00;2.47;;;24.10;54.40;;;;;;5022512;28;20482;-73
2022/05/12 05:33:56;;;;;;;5.18;2.20;;;24.10;54.20;;;;;;5013641;28;20026;-73
2022/05/12 05:36:21;;;;;;;4.68;2.38;;;24.10;54.30;;;;;;5001956;28;20038;-73
2022/05/12 05:38:47;;;;;;;5.25;2.53;;;24.10;54.20;;;;;;4993167;28;20037;-72
2022/05/12 05:41:13;;;;;;;4.10;2.30;;;24.10;54.10;;;;;;5017481;28;20024;-72
2022/05/12 05:43:39;;;;;;;5.93;2.67;;;24.10;54.00;;;;;;5003549;28;20032;-72
2022/05/12 05:46:06;;;;;;;5.05;2.38;;;24.10;54.00;;;;;;5016738;28;20026;-72
2022/05/12 05:48:32;;;;;;;8.07;2.58;;;24.10;53.80;;;;;;5010695;28;20026;-72
2022/05/12 05:53:42;;;;;;;8.40;2.83;;;24.10;53.60;;;;;;5011281;28;20045;-73
2022/05/12 05:56:17;;;;;;;6.95;2.42;;;24.10;53.60;;;;;;5027430;28;20069;-73
2022/05/12 05:58:45;;;;;;;7.03;3.00;;;24.00;53.40;;;;;;5011957;28;20057;-72
2022/05/12 06:01:12;;;;;;;6.40;2.33;;;24.00;53.30;;;;;;4977745;28;20037;-73
2022/05/12 06:03:38;;;;;;;5.80;2.53;;;24.10;53.20;;;;;;5006263;28;20479;-73
2022/05/12 06:06:04;;;;;;;8.77;3.33;;;24.10;53.20;;;;;;5011412;28;20449;-72
2022/05/12 06:08:30;;;;;;;7.03;2.67;;;24.10;53.10;;;;;;5019000;28;20117;-73
2022/05/12 06:10:58;;;;;;;4.80;2.40;;;24.10;53.10;;;;;;5013089;28;20026;-73
2022/05/12 06:13:23;;;;;;;5.78;2.50;;;24.10;52.90;;;;;;5009891;28;20022;-73
2022/05/12 06:15:50;;;;;;;5.07;2.95;;;24.10;52.80;;;;;;4999393;28;20037;-73
2022/05/12 06:18:17;;;;;;;8.63;3.40;;;24.10;52.80;;;;;;4996959;28;20101;-73
2022/05/12 06:20:45;;;;;;;5.32;2.55;;;24.10;52.60;;;;;;5010283;28;20077;-73
2022/05/12 06:23:12;;;;;;;8.18;2.80;;;24.10;52.60;;;;;;5021514;28;20021;-74
2022/05/12 06:25:38;;;;;;;6.07;2.65;;;24.10;52.50;;;;;;4993864;28;20018;-73
2022/05/12 06:28:05;;;;;;;7.80;2.92;;;24.10;52.30;;;;;;5010428;28;20379;-73
2022/05/12 06:30:30;;;;;;;5.80;2.65;;;24.10;52.30;;;;;;5000693;28;20851;-74
2022/05/12 06:32:56;;;;;;;7.57;3.10;;;24.10;52.30;;;;;;5010244;28;20072;-73
2022/05/12 06:35:24;;;;;;;8.43;2.97;;;24.10;52.10;;;;;;4994321;28;20155;-73
2022/05/12 06:37:50;;;;;;;11.90;2.97;;;24.00;52.20;;;;;;4991499;28;20029;-73
2022/05/12 06:40:17;;;;;;;7.93;3.35;;;24.10;52.10;;;;;;4977986;28;20049;-72
2022/05/12 06:42:44;;;;;;;7.40;2.58;;;24.10;52.10;;;;;;5020114;28;20113;-72
2022/05/12 06:45:15;;;;;;;5.35;2.50;;;24.00;51.80;;;;;;4995572;28;20048;-72
2022/05/12 06:47:51;;;;;;;5.85;2.65;;;24.10;52.50;;;;;;5013420;28;20062;-73
2022/05/12 06:50:23;;;;;;;6.53;2.50;;;24.00;51.50;;;;;;5009661;28;20030;-73
2022/05/12 06:52:49;;;;;;;8.30;2.53;;;24.00;51.70;;;;;;5018540;28;20033;-73
2022/05/12 06:55:15;;;;;;;6.10;2.38;;;24.00;52.00;;;;;;4995297;28;20030;-73
2022/05/12 06:57:42;;;;;;;5.75;2.50;;;24.00;51.40;;;;;;5028502;28;20052;-73
2022/05/12 07:00:09;;;;;;;6.85;2.83;;;24.00;52.00;;;;;;5013569;28;20034;-72
2022/05/12 07:02:36;;;;;;;6.30;2.50;;;24.00;51.50;;;;;;5013766;28;20080;-73
2022/05/12 07:05:03;;;;;;;6.15;2.30;;;24.00;51.40;;;;;;5021747;28;20049;-72
2022/05/12 07:07:28;;;;;;;5.07;2.55;;;24.10;51.40;;;;;;4987692;28;20034;-72
2022/05/12 07:09:55;;;;;;;7.85;2.58;;;24.00;51.30;;;;;;5012846;28;20036;-73
2022/05/12 07:12:23;;;;;;;9.25;2.70;;;24.00;51.40;;;;;;5014139;28;20065;-73
2022/05/12 07:14:49;;;;;;;8.00;2.78;;;24.00;51.50;;;;;;5012456;28;20030;-73
2022/05/12 07:17:25;;;;;;;6.97;2.60;;;24.00;51.50;;;;;;5003653;28;20466;-77
2022/05/12 07:19:52;;;;;;;6.35;2.53;;;24.00;51.40;;;;;;4999968;28;20112;-77
2022/05/12 07:27:47;;;;;;;7.13;2.00;;;24.10;51.60;;;;;;5012882;28;20029;-78
2022/05/12 07:30:12;;;;;;;14.57;3.25;;;24.10;51.70;;;;;;4996939;28;20065;-78
2022/05/12 07:32:38;;;;;;;10.02;2.53;;;24.10;51.60;;;;;;5012572;28;20034;-77
2022/05/12 07:35:08;;;;;;;10.93;3.03;;;24.10;52.00;;;;;;4976757;28;20116;-81
2022/05/12 07:37:34;;;;;;;10.73;2.55;;;24.10;51.70;;;;;;4977125;28;20037;-80
2022/05/12 07:39:59;;;;;;;10.05;2.80;;;24.10;51.20;;;;;;4992535;28;20490;-81
2022/05/12 07:42:25;;;;;;;6.95;2.42;;;24.10;51.30;;;;;;5011425;28;20024;-81
2022/05/12 07:44:51;;;;;;;10.00;2.25;;;24.10;51.80;;;;;;5007970;28;20490;-80
2022/05/12 07:47:19;;;;;;;11.35;2.30;;;24.10;50.70;;;;;;5013398;28;20049;-81
2022/05/12 07:49:46;;;;;;;15.73;1.95;;;24.10;51.90;;;;;;4986153;28;20029;-80
2022/05/12 07:52:14;;;;;;;12.15;2.58;;;24.00;50.50;;;;;;5005339;28;20026;-77
2022/05/12 07:54:39;;;;;;;9.45;1.80;;;24.00;51.00;;;;;;5010927;28;20508;-80
2022/05/12 07:57:06;;;;;;;9.05;2.00;;;24.00;49.70;;;;;;4989195;28;20045;-80
2022/05/12 07:59:32;;;;;;;9.57;1.80;;;24.00;50.10;;;;;;4995520;28;20038;-80
2022/05/12 08:01:58;;;;;;;7.55;1.58;;;24.00;49.80;;;;;;4997093;28;20022;-78
2022/05/12 08:04:25;;;;;;;9.13;1.77;;;24.00;49.30;;;;;;4998972;28;20415;-79
2022/05/12 08:06:51;;;;;;;6.35;1.85;;;24.00;49.50;;;;;;4995659;28;20517;-79
2022/05/12 08:09:17;;;;;;;35.13;4.18;;;24.00;49.40;;;;;;5016100;28;20030;-82
2022/05/12 08:11:44;;;;;;;30.67;3.42;;;24.00;49.70;;;;;;4995269;28;20045;-78
2022/05/12 08:14:10;;;;;;;29.20;4.22;;;24.00;49.80;;;;;;5031056;28;20104;-78
2022/05/12 08:16:37;;;;;;;22.95;4.30;;;24.10;49.80;;;;;;4996889;28;20591;-77
2022/05/12 08:19:03;;;;;;;27.27;3.67;;;24.10;50.20;;;;;;5009716;28;20071;-77
2022/05/12 08:21:29;;;;;;;34.10;4.07;;;24.10;50.30;;;;;;4995417;28;20025;-82
2022/05/12 08:23:54;;;;;;;27.10;4.05;;;24.10;50.60;;;;;;5024654;28;20167;-76
2022/05/12 08:26:21;;;;;;;39.70;4.20;;;24.10;50.80;;;;;;5012075;28;20033;-76
2022/05/12 08:28:49;;;;;;;21.88;4.10;;;24.10;50.80;;;;;;5019363;28;20112;-77
2022/05/12 08:31:15;;;;;;;26.25;3.75;;;24.20;50.90;;;;;;4965431;28;20035;-78
2022/05/12 08:33:40;;;;;;;13.85;2.80;;;24.20;50.60;;;;;;5002127;28;20502;-78
2022/05/12 08:36:07;;;;;;;21.42;3.47;;;24.10;50.00;;;;;;4994435;28;20024;-76
2022/05/12 08:38:34;;;;;;;30.42;4.35;;;24.20;51.00;;;;;;5019027;28;20030;-77
2022/05/12 08:41:18;;;;;;;34.88;4.53;;;24.20;51.30;;;;;;5009339;28;20049;-76
2022/05/12 08:43:44;;;;;;;32.42;3.83;;;24.20;51.80;;;;;;5001835;28;20478;-76
2022/05/12 08:46:21;;;;;;;14.43;3.60;;;24.20;51.00;;;;;;5021472;28;20029;-76
2022/05/12 08:48:48;;;;;;;24.90;3.83;;;24.20;51.10;;;;;;5032129;28;20036;-76
2022/05/12 08:51:19;;;;;;;20.20;3.50;;;24.20;51.40;;;;;;5031194;28;20029;-76
2022/05/12 08:53:58;;;;;;;18.60;3.63;;;24.20;51.50;;;;;;5014219;28;20033;-75
2022/05/12 08:56:26;;;;;;;22.70;3.88;;;24.20;51.50;;;;;;5032042;28;20105;-76
2022/05/12 08:58:57;;;;;;;21.95;3.45;;;24.20;51.20;;;;;;5031678;28;20500;-75
2022/05/12 09:01:32;;;;;;;15.98;3.50;;;24.20;51.20;;;;;;5026415;28;20109;-75
2022/05/12 09:04:25;;;;;;;16.38;3.97;;;24.20;51.80;;;;;;5010008;28;20029;-74
2022/05/12 09:06:57;;;;;;;17.63;3.60;;;24.20;51.70;;;;;;5016744;28;20441;-75
2022/05/12 09:09:50;;;;;;;27.15;4.13;;;24.20;51.90;;;;;;5026633;28;20306;-76
2022/05/12 09:12:54;;;;;;;18.75;3.50;;;24.20;52.10;;;;;;5010922;28;20137;-75
2022/05/12 09:15:24;;;;;;;19.08;3.40;;;24.20;51.90;;;;;;5004154;28;20025;-76
2022/05/12 09:17:55;;;;;;;17.38;2.97;;;24.20;51.90;;;;;;5023959;28;20021;-75
2022/05/12 09:20:22;;;;;;;15.35;3.72;;;24.30;51.80;;;;;;5031461;28;20029;-75
2022/05/12 09:22:47;;;;;;;15.05;3.33;;;24.20;51.80;;;;;;5013687;28;20025;-76
2022/05/12 09:25:29;;;;;;;19.30;3.65;;;24.20;52.00;;;;;;5031564;28;20084;-76
2022/05/12 09:27:58;;;;;;;19.38;3.17;;;24.20;52.10;;;;;;5014081;28;20574;-76
2022/05/12 09:30:33;;;;;;;21.83;3.65;;;24.20;52.30;;;;;;5026110;28;20030;-76
2022/05/12 09:33:00;;;;;;;13.10;3.15;;;24.20;52.30;;;;;;4998821;28;20034;-76
2022/05/12 09:35:28;;;;;;;17.80;3.42;;;24.30;52.30;;;;;;5024100;28;20045;-75
2022/05/12 09:37:54;;;;;;;13.50;3.40;;;24.20;52.30;;;;;;5030256;28;20033;-75
2022/05/12 09:40:34;;;;;;;14.70;3.08;;;24.30;52.40;;;;;;5031527;28;20490;-76
2022/05/12 09:43:22;;;;;;;13.82;3.05;;;24.30;52.40;;;;;;5030144;28;20029;-76
2022/05/12 09:46:18;;;;;;;14.48;3.00;;;24.30;52.50;;;;;;5030442;28;20032;-77
2022/05/12 09:48:47;;;;;;;15.65;3.03;;;24.30;52.50;;;;;;5020914;28;20025;-77
2022/05/12 09:51:25;;;;;;;20.58;3.05;;;24.30;52.60;;;;;;5026633;28;20080;-77
2022/05/12 09:53:53;;;;;;;18.10;3.15;;;24.30;53.20;;;;;;5029807;28;20409;-76
2022/05/12 09:56:33;;;;;;;14.55;3.15;;;24.30;52.60;;;;;;4997864;28;20112;-76
2022/05/12 09:59:16;;;;;;;17.35;3.22;;;24.20;51.80;;;;;;5031028;28;20033;-75
2022/05/12 10:02:04;;;;;;;10.68;2.85;;;24.30;52.30;;;;;;5013667;28;20028;-75
2022/05/12 10:10:32;;;;;;;11.95;3.00;;;24.30;52.30;;;;;;5030567;28;20033;-75
2022/05/12 10:13:03;;;;;;;12.40;2.72;;;24.30;52.30;;;;;;5033340;28;20506;-73
2022/05/12 10:15:35;;;;;;;16.30;3.25;;;24.30;52.30;;;;;;5016947;28;20029;-74
2022/05/12 10:18:32;;;;;;;16.52;5.85;;;24.30;51.80;;;;;;5030045;28;20608;-73
2022/05/12 10:21:09;;;;;;;13.45;4.78;;;24.20;48.90;;;;;;5016183;28;20022;-74
2022/05/12 10:23:44;;;;;;;14.00;4.60;;;24.20;48.90;;;;;;4997257;28;20104;-72
2022/05/12 10:26:20;;;;;;;8.15;3.40;;;24.10;47.30;;;;;;5013482;28;20107;-73
2022/05/12 10:28:59;;;;;;;11.07;4.07;;;24.10;48.60;;;;;;5015082;28;20360;-73
2022/05/12 10:31:48;;;;;;;9.23;3.40;;;24.00;47.70;;;;;;5015102;28;20029;-73
2022/05/12 10:34:29;;;;;;;7.75;3.30;;;24.10;45.60;;;;;;5017568;28;20468;-73
2022/05/12 10:37:21;;;;;;;6.78;2.70;;;24.00;45.40;;;;;;4995174;28;20085;-73
2022/05/12 10:40:01;;;;;;;8.77;2.35;;;24.00;46.20;;;;;;4995100;28;20037;-74
2022/05/12 10:42:26;;;;;;;;;;;24.00;43.60;;;;;;4995434;28;20022;-73
2022/05/12 10:45:17;;;;;;;9.27;2.05;;;24.00;43.00;;;;;;4993404;28;19956;-73
2022/05/12 10:48:07;;;;;;;5.55;2.13;;;23.90;45.20;;;;;;4994995;28;20065;-73
2022/05/12 10:51:02;;;;;;;6.00;1.58;;;23.90;44.70;;;;;;5022104;28;20038;-73
2022/05/12 10:54:09;;;;;;;10.35;2.28;;;23.90;43.10;;;;;;5033858;28;20036;-73
2022/05/12 10:57:03;;;;;;;4.60;1.70;;;23.90;43.40;;;;;;5034192;28;20021;-73
2022/05/12 10:59:59;;;;;;;5.43;1.75;;;23.90;44.60;;;;;;5032851;28;20029;-73
2022/05/12 11:02:27;;;;;;;7.25;1.98;;;23.90;45.30;;;;;;5033567;28;20425;-76
2022/05/12 11:05:21;;;;;;;3.00;1.45;;;23.90;43.60;;;;;;5032818;28;20076;-76
2022/05/12 11:08:14;;;;;;;6.65;1.55;;;23.90;43.50;;;;;;5026207;28;20072;-77
2022/05/12 11:10:54;;;;;;;3.13;1.30;;;24.00;42.40;;;;;;5032860;28;20045;-77
2022/05/12 11:13:27;;;;;;;4.18;1.40;;;24.00;42.60;;;;;;5032754;28;20029;-77
2022/05/12 11:16:03;;;;;;;6.50;1.50;;;24.10;43.30;;;;;;5033944;28;20022;-75
2022/05/12 11:19:12;;;;;;;8.55;1.70;;;24.00;43.60;;;;;;5033158;28;20068;-76
2022/05/12 11:22:07;;;;;;;5.00;1.63;;;24.00;44.70;;;;;;5023235;28;20029;-75
2022/05/12 11:24:52;;;;;;;5.03;1.35;;;24.00;45.10;;;;;;5024412;28;20404;-76
2022/05/12 11:27:29;;;;;;;5.57;1.55;;;24.10;45.50;;;;;;5033822;28;20109;-76
2022/05/12 11:30:33;;;;;;;6.60;1.58;;;24.10;46.00;;;;;;5033759;28;20112;-76
2022/05/12 11:33:24;;;;;;;5.63;1.55;;;24.10;46.10;;;;;;5033480;28;20030;-76
2022/05/12 11:35:52;;;;;;;3.92;1.42;;;24.10;46.40;;;;;;5033689;28;20038;-76
2022/05/12 11:38:40;;;;;;;5.65;1.48;;;24.10;46.50;;;;;;5022653;28;20022;-74
2022/05/12 11:41:21;;;;;;;3.60;1.25;;;24.10;46.40;;;;;;4994136;28;20045;-75
2022/05/12 11:47:15;;;;;;;7.85;1.40;;;24.10;46.70;;;;;;4994051;28;20105;-75
2022/05/12 11:49:57;;;;;;;6.18;1.60;;;24.10;46.70;;;;;;4993931;28;20061;-75
2022/05/12 11:52:50;;;;;;;4.20;1.60;;;24.10;46.80;;;;;;4992844;28;20053;-75
2022/05/12 11:55:35;;;;;;;4.97;1.35;;;24.10;46.80;;;;;;5017180;28;20061;-75
2022/05/12 11:58:11;;;;;;;8.52;1.33;;;24.10;47.10;;;;;;5000422;28;20033;-75
2022/05/12 12:00:36;;;;;;;5.40;1.58;;;24.20;47.20;;;;;;5024848;28;20433;-74
2022/05/12 12:03:28;;;;;;;12.30;1.60;;;24.20;47.40;;;;;;5031534;28;20033;-75
2022/05/12 12:05:54;;;;;;;4.93;1.70;;;24.20;47.50;;;;;;5030941;28;20037;-77
2022/05/12 12:08:32;;;;;;;5.28;1.60;;;24.20;47.60;;;;;;5033137;28;20108;-76
2022/05/12 12:11:25;;;;;;;4.35;1.50;;;24.20;47.60;;;;;;5021127;28;20088;-76
2022/05/12 12:14:01;;;;;;;4.75;1.40;;;24.20;47.90;;;;;;4993209;28;20223;-76
2022/05/12 12:17:06;;;;;;;5.65;1.45;;;24.20;47.70;;;;;;4976078;28;20026;-76
2022/05/12 12:19:47;;;;;;;5.55;1.45;;;24.20;48.00;;;;;;4974163;28;20406;-75
2022/05/12 12:22:39;;;;;;;3.80;1.50;;;24.10;47.80;;;;;;4975813;28;20037;-71
2022/05/12 12:25:08;;;;;;;5.25;1.80;;;24.10;48.20;;;;;;4995553;28;20044;-72
2022/05/12 12:27:52;;;;;;;11.82;5.88;;;24.10;47.80;;;;;;5023022;28;20034;-72
2022/05/12 12:30:25;;;;;;;10.88;4.15;;;24.10;47.60;;;;;;5032423;28;20028;-72
2022/05/12 12:33:10;;;;;;;12.70;4.40;;;24.00;47.30;;;;;;5032125;28;20394;-72
2022/05/12 12:36:09;;;;;;;8.73;3.78;;;24.00;45.90;;;;;;5014071;28;20105;-71
2022/05/12 12:38:44;;;;;;;6.80;3.30;;;24.00;44.40;;;;;;5031044;28;20041;-72
2022/05/12 12:41:35;;;;;;;13.32;3.38;;;24.00;44.60;;;;;;5032248;28;20033;-72
2022/05/12 12:44:07;;;;;;;7.97;3.30;;;24.00;44.80;;;;;;5012376;28;20041;-71
2022/05/12 12:47:07;;;;;;;7.20;2.75;;;23.90;43.50;;;;;;5012425;28;20030;-71
2022/05/12 12:49:47;;;;;;;8.43;3.42;;;23.90;43.90;;;;;;4994641;28;20418;-72
2022/05/12 12:52:14;;;;;;;5.25;2.45;;;23.90;44.70;;;;;;5012450;28;20482;-72
2022/05/12 12:57:39;;;;;;;4.75;1.90;;;23.80;43.20;;;;;;5012237;28;20022;-72
2022/05/12 13:00:15;;;;;;;5.32;2.22;;;23.80;42.60;;;;;;5024077;28;20022;-72
2022/05/12 13:02:45;;;;;;;5.40;1.90;;;23.80;43.00;;;;;;5023561;28;20294;-72
2022/05/12 13:05:13;;;;;;;4.93;2.08;;;23.80;42.50;;;;;;5031996;28;20107;-72
2022/05/12 13:07:42;;;;;;;5.68;1.90;;;23.80;42.10;;;;;;5031058;28;20021;-72
2022/05/12 13:10:13;;;;;;;5.23;2.07;;;23.80;40.50;;;;;;5032321;28;20025;-71
2022/05/12 13:12:39;;;;;;;10.75;2.88;;;23.80;40.30;;;;;;5030383;28;20034;-71
2022/05/12 13:15:25;;;;;;;6.85;3.00;;;23.80;41.20;;;;;;5023179;28;20021;-72
2022/05/12 13:17:55;;;;;;;9.98;3.63;;;23.80;40.70;;;;;;5010586;28;20059;-72
2022/05/12 13:20:24;;;;;;;7.72;3.50;;;23.80;40.90;;;;;;5031689;28;20576;-71
2022/05/12 13:22:59;;;;;;;6.97;3.60;;;23.80;39.20;;;;;;5031323;28;20018;-71
2022/05/12 13:25:29;;;;;;;5.63;3.20;;;23.80;40.00;;;;;;5014359;28;20401;-72